Etusivu
METAR-TAF:

METAR-TAF

Lentoasemat :

Borlänge, Ruotsi

Leveyspiiri: 60-26N, Pituuspiiri: 015-31E, korkeus merenpinnasta: 145 m

Tämänhetkinen sää

Tämä raportti tehtiin 11 minuuttia sitten, kello 04.50 UTC
Tuuli 9 kn pohjoisen/luoteesta
Lämpötila 7°C
Kosteus 70%
Ilmanpaine 1013 hPa
Näkyvyys 10 km tai enemmän
ei pilviä alle 1500 m:ssä eikä cumulonimbus-pilviä

METAR: ESSD 230450Z 33009KT CAVOK 07/02 Q1013

Aika: 07:01 (05:01 UTC)

Sääennuste

Tämä raportti tehtiin 1 tunti ja 31 minuuttia sitten, kello 03.30 UTC
Ennuste voimassa 23. päivästä klo 04 UTC - 23. päivään klo 12 UTC
Tuuli 6 kn pohjoisen/luoteesta
Näkyvyys 10 km tai enemmän
ei pilviä alle 1500 m:ssä eikä cumulonimbus-pilviä

TAF: ESSD 230330Z 2304/2312 33006KT CAVOK

Säähavainnot ja -ennusteet yli 4000 lentoasemalta (METAR- ja TAF-raportit).

Käytössä olevat sääasemat on merkitty karttaan keltaisilla ja punaisilla pisteillä.

Aseta hiiri pisteen päälle nähdäksesi sääaseman nimen.

Klikkaa sitten nähdäksesi säähavainnot ja -ennusteet.

Kartan vaihtaminen: klikkaa mustalla rastilla varustettuja vihreitä pisteitä, niin voit zoomata sisään; viivalla varustettua vihreää pistettä, niin voit zoomata ulos tai vihreitä nuolia, niin pääset viereisille kartoille.


METAR-TAF: